Latest Weather Observations for Winton

IDQ60801

Issued at 12:31 pm EST Monday 31 August 2015 (issued every 30 minutes, with the page automatically refreshed every 10 minutes)

About weather observations | Map of weather stations | Latest weather observations for QLD | Other Formats
Station Details ID: 037039 Name: WINTON AIRPORT Lat: -22.36 Lon: 143.08 Height: 192.2 m
Data from the previous 72 hours. | See also: Recent months at Winton
Date/Time
EST
Temp
°C
App
Temp
°C
Dew
Point
Rel
Hum
%
Delta-T
°C
Wind Press
QNH
hPa
Press
MSL
hPa
Rain
since 9 am
mm
Dir
 
Spd
km/h
Gust
km/h
Spd
kts
Gust
kts
31/12:30pm 25.3 21.1 -0.7 18 11.9 S 11 24 6 13 1017.8 1017.3 0.0
31/12:00pm 24.9 21.5 -0.3 19 11.6 SSE 7 15 4 8 1018.3 1017.8 0.0
31/11:30am 24.7 21.1 0.3 20 11.4 ESE 9 19 5 10 1018.7 1018.2 0.0
31/11:00am 23.2 19.1 -0.3 21 10.7 SE 11 20 6 11 1019.2 1018.7 0.0
31/10:30am 22.7 17.9 -0.1 22 10.4 ESE 15 24 8 13 1019.5 1019.1 0.0
31/10:00am 21.8 16.6 -0.2 23 9.9 SE 17 24 9 13 1019.8 1019.4 0.0
31/09:30am 20.4 16.0 0.3 26 9.1 ESE 13 20 7 11 1019.7 1019.3 0.0
31/09:00am 18.3 14.2 0.0 29 8.0 ESE 11 15 6 8 1019.6 1019.2 0.0
31/08:30am 15.9 11.7 -0.8 32 7.1 ESE 11 15 6 8 1019.4 1019.0 0.0
31/08:00am 14.3 10.4 -1.3 34 6.4 E 9 15 5 8 1019.4 1019.0 0.0
31/07:30am 11.6 8.1 -2.6 37 5.5 NE 6 7 3 4 1019.1 1018.6 0.0
31/07:00am 10.4 6.4 -2.6 40 5.0 ESE 9 11 5 6 1018.6 1018.1 0.0
31/06:30am 9.7 6.2 -3.2 40 4.8 E 6 7 3 4 1018.4 1017.9 0.0
31/06:00am 10.0 6.9 -2.6 41 4.8 ESE 4 6 2 3 1018.0 1017.5 0.0
31/05:30am 9.9 6.4 -2.7 41 4.8 E 6 7 3 4 1017.7 1017.2 0.0
31/05:00am 9.4 5.6 -3.5 40 4.8 E 7 9 4 5 1017.5 1017.0 0.0
31/04:30am 9.8 6.2 -3.5 39 5.0 ESE 6 7 3 4 1017.4 1016.9 0.0
31/04:00am 11.4 8.0 -2.0 39 5.3 ESE 6 6 3 3 1017.6 1017.1 0.0
31/03:30am 11.5 9.2 -2.3 38 5.4 CALM 0 0 0 0 1017.8 1017.3 0.0
31/03:00am 11.7 9.5 -1.8 39 5.3 CALM 0 0 0 0 1017.9 1017.4 0.0
31/02:30am 11.3 8.1 -3.6 35 5.6 NNE 4 6 2 3 1018.0 1017.5 0.0
31/02:00am 13.2 10.6 -1.5 36 6.0 ENE 2 4 1 2 1018.1 1017.6 0.0
31/01:30am 13.3 10.7 -1.8 35 6.1 ESE 2 6 1 3 1018.3 1017.8 0.0
31/01:00am 13.6 10.3 -1.6 35 6.2 ESE 6 6 3 3 1018.3 1017.8 0.0
31/12:30am 12.8 9.6 -3.5 32 6.3 NE 4 4 2 2 1018.4 1017.9 0.0
31/12:00am 14.8 11.8 -1.7 32 6.8 NE 4 6 2 3 1018.5 1018.0 0.0
 
Date/Time
EST
Temp
°C
App
Temp
°C
Dew
Point
Rel
Hum
%
Delta-T
°C
Wind Press
QNH
hPa
Press
MSL
hPa
Rain
since 9 am
mm
Dir
 
Spd
km/h
Gust
km/h
Spd
kts
Gust
kts
30/11:30pm 14.9 11.9 -1.6 32 6.8 E 4 4 2 2 1018.6 1018.1 0.0
30/11:00pm 15.9 12.6 -1.2 31 7.2 SSE 6 7 3 4 1018.7 1018.2 0.0
30/10:30pm 16.2 12.9 -1.4 30 7.4 S 6 9 3 5 1018.8 1018.3 0.0
30/10:00pm 18.5 14.4 -0.3 28 8.2 SSE 11 13 6 7 1018.7 1018.2 0.0
30/09:30pm 18.7 14.5 -0.7 27 8.4 SSE 11 13 6 7 1018.6 1018.1 0.0
30/09:00pm 19.1 14.9 -0.8 26 8.6 SSE 11 13 6 7 1018.4 1017.9 0.0
30/08:30pm 19.9 15.3 -0.7 25 9.1 SSE 13 15 7 8 1018.2 1017.7 0.0
30/08:00pm 20.5 17.1 -0.7 24 9.3 SSE 7 9 4 5 1018.2 1017.7 0.0
30/07:30pm 19.7 15.4 -2.0 23 9.3 SSW 11 11 6 6 1017.8 1017.3 0.0
30/07:00pm 21.1 16.8 -1.4 22 9.8 SW 11 13 6 7 1017.2 1016.7 0.0
30/06:30pm 23.3 19.1 -0.9 20 10.9 SW 11 15 6 8 1016.9 1016.4 0.0
30/06:00pm 25.1 20.5 -0.9 18 11.9 SSW 13 19 7 10 1016.5 1016.0 0.0
30/05:30pm 26.0 21.6 0.6 19 12.0 SW 13 17 7 9 1016.3 1015.8 0.0
30/05:00pm 26.1 22.0 0.0 18 12.2 SSW 11 17 6 9 1016.3 1015.8 0.0
30/04:30pm 26.6 21.6 1.1 19 12.2 SSW 17 33 9 18 1016.2 1015.7 0.0
30/04:00pm 26.3 22.1 1.6 20 11.9 SSW 13 20 7 11 1016.2 1015.7 0.0
30/03:30pm 27.2 22.2 1.6 19 12.4 SW 17 39 9 21 1016.5 1016.0 0.0
30/03:00pm 26.6 21.2 1.1 19 12.2 SSW 19 32 10 17 1016.8 1016.3 0.0
30/02:30pm 26.2 22.7 3.5 23 11.3 SW 11 22 6 12 1017.2 1016.7 0.0
30/02:00pm 26.1 23.5 3.4 23 11.3 SSE 6 15 3 8 1017.5 1017.0 0.0
30/01:30pm 25.7 23.1 4.2 25 10.8 WSW 7 17 4 9 1018.0 1017.5 0.0
30/01:00pm 25.9 22.2 4.4 25 10.9 SSE 13 26 7 14 1018.5 1018.0 0.0
30/12:30pm 24.7 21.5 5.0 28 10.0 SE 11 24 6 13 1019.0 1018.5 0.0
30/12:00pm 23.9 21.6 4.8 29 9.6 SE 6 17 3 9 1019.7 1019.3 0.0
30/11:30am 24.2 19.9 5.1 29 9.7 SSE 17 26 9 14 1020.1 1019.7 0.0
30/11:00am 24.2 21.3 6.5 32 9.2 ESE 11 20 6 11 1020.6 1020.2 0.0
30/10:30am 23.4 20.6 7.1 35 8.5 ESE 11 19 6 10 1020.8 1020.4 0.0
30/10:00am 22.3 19.8 8.1 40 7.5 ESE 11 19 6 10 1020.9 1020.5 0.0
30/09:30am 20.8 18.4 8.8 46 6.4 ESE 11 17 6 9 1020.8 1020.4 0.0
30/09:00am 19.5 17.5 8.8 50 5.6 ESE 9 15 5 8 1020.7 1020.3 0.0
30/08:30am 17.6 15.7 7.4 51 5.2 SE 7 9 4 5 1020.4 1020.0 0.0
30/08:00am 15.1 12.8 5.0 51 4.8 SSE 6 9 3 5 1020.1 1019.7 0.0
30/07:30am 12.8 10.1 3.5 53 4.2 SE 7 11 4 6 1019.6 1019.2 0.0
30/07:00am 11.7 9.0 3.5 57 3.7 SE 7 9 4 5 1019.4 1019.0 0.0
30/06:30am 11.0 8.3 3.5 60 3.3 SE 7 7 4 4 1019.2 1018.7 0.0
30/06:00am 11.1 8.4 3.9 61 3.2 ESE 7 9 4 5 1018.8 1018.3 0.0
30/05:30am 11.4 8.7 3.9 60 3.4 ESE 7 9 4 5 1018.6 1018.1 0.0
30/05:00am 11.8 8.8 4.1 59 3.5 ESE 9 9 5 5 1018.5 1018.0 0.0
30/04:30am 12.7 10.2 4.7 58 3.7 ESE 7 7 4 4 1018.4 1017.9 0.0
30/04:00am 13.1 10.6 5.0 58 3.8 ESE 7 9 4 5 1018.3 1017.8 0.0
30/03:30am 13.8 11.5 5.7 58 3.9 ESE 7 7 4 4 1018.3 1017.8 0.0
30/03:00am 14.0 11.7 5.6 57 4.0 ESE 7 9 4 5 1018.3 1017.8 0.0
30/02:30am 14.6 12.0 5.9 56 4.2 ESE 9 9 5 5 1018.4 1017.9 0.0
30/02:00am 15.6 12.7 6.6 55 4.4 E 11 13 6 7 1018.7 1018.2 0.0
30/01:30am 15.6 13.2 7.1 57 4.2 ENE 9 13 5 7 1019.0 1018.5 0.0
30/01:00am 16.6 15.0 8.6 59 4.1 ESE 7 9 4 5 1018.8 1018.3 0.0
30/12:30am 17.1 15.5 8.0 55 4.7 SE 6 6 3 3 1019.1 1018.6 0.0
30/12:00am 17.5 16.1 5.4 45 5.9 ENE 2 4 1 2 1019.3 1018.8 0.0
 
Date/Time
EST
Temp
°C
App
Temp
°C
Dew
Point
Rel
Hum
%
Delta-T
°C
Wind Press
QNH
hPa
Press
MSL
hPa
Rain
since 9 am
mm
Dir
 
Spd
km/h
Gust
km/h
Spd
kts
Gust
kts
29/11:30pm 18.3 16.4 6.5 46 5.9 SSE 6 7 3 4 1019.1 1018.6 0.0
29/11:00pm 18.7 16.6 6.5 45 6.1 S 7 7 4 4 1018.9 1018.4 0.0
29/10:30pm 19.3 16.9 7.1 45 6.2 S 9 9 5 5 1018.9 1018.4 0.0
29/10:00pm 19.1 16.6 6.6 44 6.3 S 9 11 5 6 1019.0 1018.5 0.0
29/09:30pm 19.4 16.7 5.8 41 6.8 S 9 11 5 6 1018.9 1018.4 0.0
29/09:00pm 20.7 17.8 6.6 40 7.2 S 11 13 6 7 1018.7 1018.2 0.0
29/08:30pm 21.5 18.2 6.2 37 7.8 S 13 15 7 8 1018.6 1018.1 0.0
29/08:00pm 22.4 19.1 6.2 35 8.3 S 13 17 7 9 1018.2 1017.7 0.0
29/07:30pm 23.5 19.1 6.7 34 8.7 SSW 19 24 10 13 1017.9 1017.4 0.0
29/07:00pm 23.8 18.9 7.0 34 8.8 SSW 22 28 12 15 1017.7 1017.2 0.0
29/06:30pm 24.5 19.5 6.3 31 9.5 SSW 22 28 12 15 1017.5 1017.0 0.0
29/06:00pm 24.9 19.9 6.6 31 9.6 SSW 22 28 12 15 1017.2 1016.7 0.0
29/05:30pm 26.1 20.7 6.2 28 10.4 SSW 24 32 13 17 1017.0 1016.5 0.0
29/05:00pm 26.9 22.7 5.8 26 11.0 SSW 17 22 9 12 1016.8 1016.3 0.0
29/04:30pm 26.9 23.0 5.2 25 11.2 S 15 22 8 12 1016.7 1016.2 0.0
29/04:00pm 27.0 23.2 4.1 23 11.6 SSE 13 22 7 12 1016.6 1016.1 0.0
29/03:30pm 27.0 24.0 4.1 23 11.6 S 9 17 5 9 1016.5 1016.0 0.0
29/03:00pm 27.6 24.3 4.6 23 11.8 S 11 17 6 9 1016.8 1016.3 0.0
29/02:30pm 27.5 24.2 4.5 23 11.8 SSE 11 24 6 13 1017.2 1016.7 0.0
29/02:00pm 26.9 23.5 4.0 23 11.6 S 11 20 6 11 1017.6 1017.1 0.0
29/01:30pm 26.8 23.1 4.6 24 11.3 S 13 26 7 14 1018.0 1017.5 0.0
29/01:00pm 27.7 23.8 5.3 24 11.6 SSW 15 20 8 11 1018.6 1018.1 0.0
29/12:30pm 27.4 23.9 5.6 25 11.4 S 13 20 7 11 1019.0 1018.5 0.0
29/12:00pm 27.3 24.7 6.1 26 11.1 SSE 9 17 5 9 1019.5 1019.1 0.0
29/11:30am 25.4 22.7 5.6 28 10.2 SE 9 13 5 7 1020.1 1019.7 0.0
29/11:00am 25.0 22.4 6.2 30 9.8 SE 9 17 5 9 1020.5 1020.1 0.0
29/10:30am 23.9 20.9 5.8 31 9.3 SE 11 17 6 9 1020.9 1020.5 0.0
29/10:00am 23.4 20.8 6.2 33 8.8 ESE 9 15 5 8 1021.1 1020.7 0.0
29/09:30am 22.3 20.0 5.7 34 8.4 ESE 7 13 4 7 1021.2 1020.8 0.0
29/09:00am 20.6 17.2 4.2 34 8.0 ESE 11 17 6 9 1020.9 1020.5 0.0
29/08:30am 18.9 15.3 2.7 34 7.6 SE 11 15 6 8 1020.7 1020.3 0.0
29/08:00am 18.1 16.0 2.0 34 7.3 ESE 2 6 1 3 1020.3 1019.9 0.0
29/07:30am 15.9 13.7 1.2 37 6.5 SE 2 2 1 1 1020.2 1019.8 0.0
29/07:00am 14.8 12.1 0.6 38 6.1 SSE 4 4 2 2 1020.1 1019.7 0.0
29/06:30am 14.7 11.1 0.5 38 6.1 SW 9 11 5 6 1020.1 1019.7 0.0
29/06:00am 16.1 13.0 1.4 37 6.5 S 7 9 4 5 1019.4 1019.0 0.0
29/05:30am 16.4 12.8 0.9 35 6.8 S 9 11 5 6 1019.0 1018.5 0.0
29/05:00am 16.9 13.4 1.0 34 7.0 ESE 9 11 5 6 1018.7 1018.2 0.0
29/04:30am 17.6 14.1 1.2 33 7.3 ESE 9 9 5 5 1018.9 1018.4 0.0
29/04:00am 17.4 14.5 1.4 34 7.2 ESE 6 9 3 5 1019.1 1018.6 0.0
29/03:30am 18.3 15.5 2.2 34 7.4 SSE 6 7 3 4 1019.2 1018.7 0.0
29/03:00am 18.4 15.4 2.3 34 7.4 SE 7 9 4 5 1018.9 1018.4 0.0
29/02:30am 18.5 15.6 2.4 34 7.4 S 7 7 4 4 1019.7 1019.3 0.0
29/02:00am 19.3 16.4 2.6 33 7.8 SSE 7 11 4 6 1019.5 1019.1 0.0
29/01:30am 19.5 16.3 2.8 33 7.8 S 9 13 5 7 1019.8 1019.4 0.0
29/01:00am 19.5 16.7 3.2 34 7.7 SSE 7 9 4 5 1020.0 1019.6 0.0
29/12:30am 19.6 16.1 3.3 34 7.7 S 11 17 6 9 1020.5 1020.1 0.0
29/12:00am 20.0 15.8 3.7 34 7.8 SSW 15 19 8 10 1020.4 1020.0 0.0
 
Date/Time
EST
Temp
°C
App
Temp
°C
Dew
Point
Rel
Hum
%
Delta-T
°C
Wind Press
QNH
hPa
Press
MSL
hPa
Rain
since 9 am
mm
Dir
 
Spd
km/h
Gust
km/h
Spd
kts
Gust
kts
28/11:30pm 20.4 16.9 3.6 33 8.1 S 11 15 6 8 1020.3 1019.9 0.0
28/11:00pm 21.2 17.5 4.3 33 8.3 S 13 20 7 11 1020.4 1020.0 0.0
28/10:30pm 21.2 17.5 4.7 34 8.1 S 13 17 7 9 1020.2 1019.8 0.0
28/10:00pm 21.5 18.2 4.6 33 8.3 SSE 11 15 6 8 1019.9 1019.5 0.0
28/09:30pm 22.3 18.7 4.8 32 8.7 SSE 13 17 7 9 1020.0 1019.6 0.0
28/09:00pm 22.7 18.4 5.2 32 8.8 S 17 20 9 11 1019.9 1019.5 0.0
28/08:30pm 23.1 18.8 5.1 31 9.1 S 17 20 9 11 1020.0 1019.6 0.0
28/08:00pm 23.9 19.6 5.3 30 9.4 S 17 26 9 14 1019.5 1019.1 0.0
28/07:30pm 24.5 20.3 5.8 30 9.6 S 17 24 9 13 1018.8 1018.3 0.0
28/07:00pm 25.2 20.9 6.9 31 9.6 SSE 19 24 10 13 1018.1 1017.6 0.0
28/06:30pm 25.7 22.7 7.8 32 9.6 SSE 13 17 7 9 1017.8 1017.3 0.0
28/06:00pm 26.3 23.2 8.8 33 9.6 SSE 15 20 8 11 1017.3 1016.8 0.0
28/05:30pm 27.2 24.5 9.1 32 10.0 SSE 13 19 7 10 1017.1 1016.6 0.0
28/05:00pm 27.1 23.7 9.0 32 10.0 S 17 28 9 15 1017.0 1016.5 0.0
28/04:30pm 27.7 24.8 9.5 32 10.2 S 15 24 8 13 1016.8 1016.3 0.0
28/04:00pm 28.5 26.1 10.2 32 10.4 S 13 20 7 11 1016.7 1016.2 0.0
28/03:30pm 28.3 25.6 9.1 30 10.7 S 13 20 7 11 1016.9 1016.4 0.0
28/03:00pm 28.2 24.8 9.0 30 10.7 SSE 17 24 9 13 1017.0 1016.5 0.0
28/02:30pm 28.6 26.1 9.8 31 10.6 SSE 13 24 7 13 1017.3 1016.8 0.0
28/02:00pm 28.0 26.5 10.7 34 9.9 SSE 9 15 5 8 1018.0 1017.5 0.0
28/01:30pm 27.0 25.9 10.7 36 9.3 ESE 7 15 4 8 1018.5 1018.0 0.0
28/01:00pm 27.3 24.4 10.9 36 9.3 SSE 17 26 9 14 1018.9 1018.4 0.0

Other Formats:

Comma delimited format used in spreadsheet applications
http://www.bom.gov.au/fwo/IDQ60801/IDQ60801.94342.axf

JavaScript Object Notation format (JSON) in row-major order
http://www.bom.gov.au/fwo/IDQ60801/IDQ60801.94342.json